Aquashicola, Pennsylvania
Current Conditions -  °F | °C
As of 4:51 AM on Sunday 26 Oct 2014 (Local Time) from KABE Reporting Station
Overcast Overcast  
Wind Chill: 58°   Ceiling: 5000
Heat Index: 58°   Visibility: 10mi
Dew Point: 36°   Wind: 14mph
Humidity: 44%   Direction: 330°NNW
Pressure: 29.63"   Gusts: 29mph
Location:  40.81°N, 75.59°W
Report Text: KABE 260851Z 33012G25KT 10SM BKN050 BKN060 OVC095 14/02 A2963 RMK AO2 SLP031 T01440022 53012
Loading
Personal Weather Stations






























Interactive Weather Map
Tropical Storm Tracking
New forecast layout! Learn more

10-Day Weather Forecast

Advertisements
Track Severe Weather on mobile